Hovedside
METAR-TAF:

METAR-TAF

Lufthavner :

Halmstad lufthavn

Halmstad, Sverige

breddegrad: 56-41N, lengdegrad: 012-50E, høyde over havet: 30 m

Gjeldene værobservasjon

Denne rapporten ble laget for 22 minutter siden, klokken 15:20 UTC
Vind 6 kt fra Nordvest
Temperatur 18°C
Luftfuktighet 30%
Trykk 1034 hPa
Sikt 10 km eller mer
ingen skyer under 1500 m og ingen bygeskyer

METAR: ESMT 181520Z 32006KT CAVOK 18/00 Q1034

Tid: 17:42 (15:42 UTC)

Varsel

Denne rapporten ble laget for 1 time og 39 minutter siden, klokken 14:03 UTC
Varsel gyldig fra 18. klokken 15 UTC til 18. klokken 21 UTC
Vind 6 kt fra Vest
Sikt 10 km eller mer
ingen skyer under 1500 m og ingen bygeskyer

TAF: ESMT 181403Z 1815/1821 27006KT CAVOK

Værobservasjoner og værvarsel for over 4000 flyplasser (METAR- og TAF-rapporter).

Tilgjengelige stasjoner er representert av de røde og gule prikkene på kartet.

Hold musepekeren over prikken for å se navnet på stasjonen.

Klikk så for å se værobservasjoner og -varsler.

For å forandre kartet kan du klikke på den grønne knappen med svart kryss for å zoome inn, på den grønne knappen med strek for å zoome ut, eller på de grønne pilene for å se tilstøtende kart.


METAR-TAF: